Time;durP1;ratioP1;P1;durP2;ratioP2;P2;SDS_P1;SDS_P2;PMS_P1;PMS_P2;Temp;Humidity;BMP_temperature;BMP_pressure;BME280_temperature;BME280_humidity;BME280_pressure;Samples;Min_cycle;Max_cycle;Signal;HPM_P1;HPM_P2
2022/07/12 00:00:48;;;;;;;;;;;384.00;2304.00;;;;;;5091030;28;19921;-59
2022/07/12 00:03:16;;;;;;;;;;;384.00;2304.00;;;;;;5091039;28;19912;-59
2022/07/12 00:05:48;;;;;;;;;;;384.00;2304.00;;;;;;5090800;28;19931;-61
2022/07/12 00:08:13;;;;;;;;;;;384.00;2304.00;;;;;;5090564;28;19939;-57
2022/07/12 00:10:39;;;;;;;;;;;384.00;2304.00;;;;;;5090680;28;20370;-60
2022/07/12 00:13:04;;;;;;;;;;;384.10;2304.00;;;;;;5090515;28;20267;-57
2022/07/12 00:15:30;;;;;;;;;;;384.20;2278.40;;;;;;5090796;28;20006;-60
2022/07/12 00:17:55;;;;;;;;;;;384.20;2252.80;;;;;;5090078;28;19952;-56
2022/07/12 00:20:21;;;;;;;;;;;384.30;2252.80;;;;;;5090814;28;19909;-57
2022/07/12 00:22:47;;;;;;;;;;;384.30;2252.80;;;;;;5090466;28;19915;-60
2022/07/12 00:25:13;;;;;;;;;;;384.30;2227.20;;;;;;5090767;28;19954;-60
2022/07/12 00:27:39;;;;;;;;;;;384.40;2227.20;;;;;;5090469;28;19920;-59
2022/07/12 00:30:06;;;;;;;;;;;384.30;2252.80;;;;;;5090301;28;19915;-60
2022/07/12 00:32:31;;;;;;;;;;;384.40;2227.20;;;;;;5090555;28;20273;-60
2022/07/12 00:34:57;;;;;;;;;;;384.40;2252.80;;;;;;5090358;28;19908;-60
2022/07/12 00:37:23;;;;;;;;;;;384.40;2278.40;;;;;;5090698;28;20611;-59
2022/07/12 00:39:48;;;;;;;;;;;384.30;2304.00;;;;;;5090344;28;19908;-58
2022/07/12 00:42:14;;;;;;;;;;;384.30;2329.60;;;;;;5090295;28;19955;-56
2022/07/12 00:44:42;;;;;;;;;;;384.20;2329.60;;;;;;5090588;28;20316;-56
2022/07/12 00:47:25;;;;;;;;;;;384.20;2329.60;;;;;;5090346;28;19919;-56
2022/07/12 00:49:50;;;;;;;;;;;384.10;2329.60;;;;;;5090450;28;19908;-56
2022/07/12 00:52:16;;;;;;;;;;;384.10;2329.60;;;;;;5090174;28;19909;-59
2022/07/12 00:54:42;;;;;;;;;;;384.00;2329.60;;;;;;5090394;28;19953;-59
2022/07/12 00:57:08;;;;;;;;;;;384.00;2329.60;;;;;;5090047;28;19961;-60
2022/07/12 00:59:33;;;;;;;;;;;359.20;2329.60;;;;;;5090175;28;19908;-58
2022/07/12 01:01:59;;;;;;;;;;;359.30;2329.60;;;;;;5090589;28;20381;-57
2022/07/12 01:04:25;;;;;;;;;;;359.30;2329.60;;;;;;5090051;28;19908;-56
2022/07/12 01:06:51;;;;;;;;;;;359.30;2329.60;;;;;;5090237;28;19916;-60
2022/07/12 01:09:17;;;;;;;;;;;359.30;2329.60;;;;;;5090117;28;19913;-55
2022/07/12 01:11:45;;;;;;;;;;;359.20;2329.60;;;;;;5090032;28;19927;-60
2022/07/12 01:14:12;;;;;;;;;;;358.70;2329.60;;;;;;5090421;28;19916;-60
2022/07/12 01:16:38;;;;;;;;;;;359.20;2329.60;;;;;;5089888;28;20369;-59
2022/07/12 01:19:06;;;;;;;;;;;359.10;2329.60;;;;;;5089972;28;19909;-57
2022/07/12 01:21:34;;;;;;;;;;;359.20;2329.60;;;;;;5089981;28;20384;-56
2022/07/12 01:24:00;;;;;;;;;;;359.10;2329.60;;;;;;5090122;28;20312;-57
2022/07/12 01:26:27;;;;;;;;;;;359.10;2329.60;;;;;;5089816;28;20251;-57
2022/07/12 01:28:53;;;;;;;;;;;359.00;2329.60;;;;;;5092571;28;19959;-58
2022/07/12 01:31:18;;;;;;;;;;;359.00;2329.60;;;;;;5093962;28;19915;-59
2022/07/12 01:33:47;;;;;;;;;;;359.00;2329.60;;;;;;5093686;28;20007;-60
2022/07/12 01:36:13;;;;;;;;;;;359.00;2329.60;;;;;;5093418;28;20405;-57
2022/07/12 01:38:38;;;;;;;;;;;359.10;2329.60;;;;;;5093681;28;19912;-57
2022/07/12 01:41:04;;;;;;;;;;;359.10;2329.60;;;;;;5093166;28;19916;-56
2022/07/12 01:43:30;;;;;;;;;;;359.10;2329.60;;;;;;5093438;28;19915;-60
2022/07/12 01:45:55;;;;;;;;;;;359.10;2329.60;;;;;;5093202;28;20046;-57
2022/07/12 01:48:21;;;;;;;;;;;359.20;2329.60;;;;;;5093226;28;19923;-57
2022/07/12 01:50:47;;;;;;;;;;;359.20;2329.60;;;;;;5093274;28;19915;-57
2022/07/12 01:53:14;;;;;;;;;;;359.20;2329.60;;;;;;5093142;28;19912;-58
2022/07/12 01:55:39;;;;;;;;;;;359.10;2329.60;;;;;;5093254;28;19912;-57
2022/07/12 01:58:05;;;;;;;;;;;359.10;2329.60;;;;;;5093015;28;20392;-57
2022/07/12 02:00:31;;;;;;;;;;;359.00;2329.60;;;;;;5093219;28;19982;-56
2022/07/12 02:02:56;;;;;;;;;;;359.00;2329.60;;;;;;5092931;28;20281;-57
2022/07/12 02:05:22;;;;;;;;;;;358.90;2329.60;;;;;;5093113;28;20507;-59
2022/07/12 02:07:49;;;;;;;;;;;358.90;2329.60;;;;;;5093148;28;19916;-60
2022/07/12 02:10:14;;;;;;;;;;;358.90;2329.60;;;;;;5092853;28;20366;-59
2022/07/12 02:12:40;;;;;;;;;;;358.90;2329.60;;;;;;5092975;28;20007;-56
2022/07/12 02:15:06;;;;;;;;;;;358.90;2329.60;;;;;;5092764;28;20350;-57
2022/07/12 02:17:32;;;;;;;;;;;358.80;2329.60;;;;;;5092988;28;19962;-60
2022/07/12 02:19:58;;;;;;;;;;;358.80;2329.60;;;;;;5092813;28;19959;-57
2022/07/12 02:22:23;;;;;;;;;;;358.70;2329.60;;;;;;5092424;28;19908;-57
2022/07/12 02:24:50;;;;;;;;;;;358.80;2329.60;;;;;;5092829;28;19953;-58
2022/07/12 02:27:16;;;;;;;;;;;358.80;2329.60;;;;;;5092542;28;19920;-56
2022/07/12 02:29:42;;;;;;;;;;;358.90;2329.60;;;;;;5092616;28;19987;-56
2022/07/12 02:32:07;;;;;;;;;;;358.80;2329.60;;;;;;5092552;28;19908;-60
2022/07/12 02:34:33;;;;;;;;;;;358.80;2329.60;;;;;;5091831;28;19920;-59
2022/07/12 02:36:59;;;;;;;;;;;358.70;2329.60;;;;;;5092466;28;19909;-56
2022/07/12 02:39:25;;;;;;;;;;;358.70;2329.60;;;;;;5091763;28;19967;-59
2022/07/12 02:41:50;;;;;;;;;;;358.70;2329.60;;;;;;5092155;28;19916;-56
2022/07/12 02:44:16;;;;;;;;;;;358.70;2329.60;;;;;;5092345;28;20002;-60
2022/07/12 02:46:42;;;;;;;;;;;358.60;2329.60;;;;;;5092170;28;19916;-56
2022/07/12 02:49:07;;;;;;;;;;;358.60;2329.60;;;;;;5091948;28;19924;-56
2022/07/12 02:51:33;;;;;;;;;;;358.60;2329.60;;;;;;5092085;28;19966;-57
2022/07/12 02:53:59;;;;;;;;;;;358.60;2329.60;;;;;;5092183;28;19908;-59
2022/07/12 02:56:25;;;;;;;;;;;358.60;2329.60;;;;;;5091819;28;19958;-59
2022/07/12 02:58:51;;;;;;;;;;;358.60;2329.60;;;;;;5091904;28;20323;-57
2022/07/12 03:01:16;;;;;;;;;;;358.60;2329.60;;;;;;5091719;28;20428;-60
2022/07/12 03:03:42;;;;;;;;;;;358.50;2329.60;;;;;;5092116;28;19912;-60
2022/07/12 03:06:08;;;;;;;;;;;358.50;2329.60;;;;;;5091762;28;19908;-56
2022/07/12 03:08:33;;;;;;;;;;;358.50;2329.60;;;;;;5091570;28;19939;-57
2022/07/12 03:10:59;;;;;;;;;;;358.50;2329.60;;;;;;5091748;28;19955;-59
2022/07/12 03:13:25;;;;;;;;;;;358.50;2329.60;;;;;;5091910;28;19939;-55
2022/07/12 03:15:50;;;;;;;;;;;358.50;2329.60;;;;;;5091578;28;19914;-57
2022/07/12 03:18:17;;;;;;;;;;;358.50;2329.60;;;;;;5091784;28;19908;-56
2022/07/12 03:20:42;;;;;;;;;;;358.50;2329.60;;;;;;5091586;28;19948;-60
2022/07/12 03:23:08;;;;;;;;;;;358.70;2329.60;;;;;;5091491;28;19997;-56
2022/07/12 03:25:33;;;;;;;;;;;358.70;2329.60;;;;;;5091371;28;19908;-58
2022/07/12 03:27:59;;;;;;;;;;;358.80;2329.60;;;;;;5091349;28;19916;-56
2022/07/12 03:30:25;;;;;;;;;;;358.90;2329.60;;;;;;5091205;28;19908;-56
2022/07/12 03:32:50;;;;;;;;;;;358.90;2329.60;;;;;;5091206;28;19916;-57
2022/07/12 03:35:16;;;;;;;;;;;358.90;2329.60;;;;;;5091478;28;19939;-60
2022/07/12 03:37:45;;;;;;;;;;;359.00;2329.60;;;;;;5091291;28;20296;-56
2022/07/12 03:40:11;;;;;;;;;;;359.00;2329.60;;;;;;5091228;28;19959;-56
2022/07/12 03:42:37;;;;;;;;;;;359.00;2329.60;;;;;;5090963;28;19908;-59
2022/07/12 03:45:03;;;;;;;;;;;359.10;2329.60;;;;;;5091192;28;20283;-59
2022/07/12 03:47:28;;;;;;;;;;;359.10;2329.60;;;;;;5091213;28;20389;-57
2022/07/12 03:49:55;;;;;;;;;;;359.10;2329.60;;;;;;5090672;28;20259;-56
2022/07/12 03:52:21;;;;;;;;;;;359.10;2329.60;;;;;;5090031;28;20400;-58
2022/07/12 03:54:46;;;;;;;;;;;359.20;2329.60;;;;;;5090973;28;19908;-59
2022/07/12 03:57:15;;;;;;;;;;;359.30;2329.60;;;;;;5090900;28;19909;-56
2022/07/12 03:59:44;;;;;;;;;;;359.30;2329.60;;;;;;5090753;28;20262;-59
2022/07/12 04:02:11;;;;;;;;;;;359.30;2329.60;;;;;;5090948;28;19916;-59
2022/07/12 04:04:36;;;;;;;;;;;384.00;2329.60;;;;;;5090573;28;19908;-59
2022/07/12 04:07:02;;;;;;;;;;;384.10;2329.60;;;;;;5090813;28;19999;-60
2022/07/12 04:09:28;;;;;;;;;;;384.20;2329.60;;;;;;5090364;28;19912;-60
2022/07/12 04:11:54;;;;;;;;;;;384.30;2329.60;;;;;;5090359;28;20278;-59
2022/07/12 04:14:19;;;;;;;;;;;384.40;2329.60;;;;;;5090756;28;20369;-57
2022/07/12 04:16:45;;;;;;;;;;;384.30;2329.60;;;;;;5090743;28;19912;-57
2022/07/12 04:19:10;;;;;;;;;;;384.30;2329.60;;;;;;5090711;28;19914;-60
2022/07/12 04:21:36;;;;;;;;;;;359.30;2329.60;;;;;;5090299;28;19909;-56
2022/07/12 04:24:02;;;;;;;;;;;384.10;2329.60;;;;;;5090660;28;19954;-61
2022/07/12 04:26:28;;;;;;;;;;;384.10;2329.60;;;;;;5090468;28;19908;-57
2022/07/12 04:28:54;;;;;;;;;;;384.10;2329.60;;;;;;5090297;28;20285;-56
2022/07/12 04:31:19;;;;;;;;;;;384.30;2329.60;;;;;;5090610;28;19912;-57
2022/07/12 04:33:45;;;;;;;;;;;384.40;2329.60;;;;;;5090402;28;19916;-57
2022/07/12 04:36:10;;;;;;;;;;;384.60;2329.60;;;;;;5090469;28;20226;-60
2022/07/12 04:38:36;;;;;;;;;;;384.90;2329.60;;;;;;5090307;28;19908;-58
2022/07/12 04:41:01;;;;;;;;;;;409.90;2355.20;;;;;;5090390;28;20018;-57
2022/07/12 04:43:27;;;;;;;;;;;486.40;2329.60;;;;;;5090306;28;19930;-60
2022/07/12 04:45:52;;;;;;;;;;;589.60;1740.80;;;;;;5090431;28;20251;-59
2022/07/12 04:48:18;;;;;;;;;;;691.20;1459.20;;;;;;5090208;28;20247;-58
2022/07/12 04:50:44;;;;;;;;;;;742.50;1331.20;;;;;;5090328;28;19908;-59
2022/07/12 04:53:10;;;;;;;;;;;768.60;1228.80;;;;;;5090403;28;19969;-60
2022/07/12 04:55:36;;;;;;;;;;;794.40;1177.60;;;;;;5090063;28;19912;-58
2022/07/12 04:58:01;;;;;;;;;;;844.90;1126.40;;;;;;5090444;28;20006;-61
2022/07/12 05:00:27;;;;;;;;;;;845.50;1100.80;;;;;;5089904;28;19974;-59
2022/07/12 05:02:53;;;;;;;;;;;870.80;1049.60;;;;;;5091349;28;19916;-58
2022/07/12 05:05:19;;;;;;;;;;;871.10;1024.00;;;;;;5094221;28;19911;-59
2022/07/12 05:07:44;;;;;;;;;;;896.20;998.40;;;;;;5093857;28;19968;-58
2022/07/12 05:10:10;;;;;;;;;;;896.70;972.80;;;;;;5094246;28;19908;-57
2022/07/12 05:12:35;;;;;;;;;;;896.60;972.80;;;;;;5093920;28;20265;-57
2022/07/12 05:15:01;;;;;;;;;;;921.70;998.40;;;;;;5094105;28;19916;-62
2022/07/12 05:17:27;;;;;;;;;;;896.90;972.80;;;;;;5093511;28;19999;-60
2022/07/12 05:19:53;;;;;;;;;;;922.40;947.20;;;;;;5094205;28;19908;-59
2022/07/12 05:22:18;;;;;;;;;;;947.40;921.60;;;;;;5093992;28;20247;-58
2022/07/12 05:24:44;;;;;;;;;;;948.00;896.00;;;;;;5093793;28;19947;-61
2022/07/12 05:27:09;;;;;;;;;;;973.00;921.60;;;;;;5093844;28;19911;-58
2022/07/12 05:29:35;;;;;;;;;;;973.70;896.00;;;;;;5093569;28;20343;-58
2022/07/12 05:32:01;;;;;;;;;;;998.50;896.00;;;;;;5093804;28;19908;-58
2022/07/12 05:34:27;;;;;;;;;;;999.20;896.00;;;;;;5093448;28;19961;-62
2022/07/12 05:36:52;;;;;;;;;;;1024.10;870.40;;;;;;5093850;28;19912;-61
2022/07/12 05:39:18;;;;;;;;;;;1049.70;870.40;;;;;;5093834;28;19915;-61
2022/07/12 05:41:44;;;;;;;;;;;1050.10;844.80;;;;;;5093411;28;20297;-58
2022/07/12 05:44:09;;;;;;;;;;;1075.90;793.60;;;;;;5093625;28;20273;-61
2022/07/12 05:46:36;;;;;;;;;;;1101.00;819.20;;;;;;5093279;28;19908;-59
2022/07/12 05:49:02;;;;;;;;;;;1075.40;819.20;;;;;;5093229;28;19962;-59
2022/07/12 05:54:12;;;;;;;;;;;1100.80;793.60;;;;;;5093500;28;19977;-60
2022/07/12 05:56:37;;;;;;;;;;;1075.90;793.60;;;;;;5093158;28;20370;-61
2022/07/12 05:59:03;;;;;;;;;;;;;;;;;;5093332;28;20645;-59
2022/07/12 06:01:29;;;;;;;;;;;1101.20;768.00;;;;;;5092929;28;19920;-58
2022/07/12 06:03:54;;;;;;;;;;;1126.50;768.00;;;;;;5092918;28;19908;-59
2022/07/12 06:06:20;;;;;;;;;;;1126.60;768.00;;;;;;5093136;28;19938;-59
2022/07/12 06:08:45;;;;;;;;;;;1127.00;768.00;;;;;;5093071;28;19923;-58
2022/07/12 06:11:11;;;;;;;;;;;1127.00;768.00;;;;;;5093070;28;19916;-59
2022/07/12 06:13:37;;;;;;;;;;;1177.70;716.80;;;;;;5092375;28;20390;-61
2022/07/12 06:16:05;;;;;;;;;;;1152.60;716.80;;;;;;5092365;28;19978;-62
2022/07/12 06:18:31;;;;;;;;;;;1177.60;691.20;;;;;;5092768;28;19908;-61
2022/07/12 06:20:57;;;;;;;;;;;1177.70;691.20;;;;;;5092778;28;20395;-60
2022/07/12 06:23:23;;;;;;;;;;;1177.70;691.20;;;;;;5092986;28;19916;-60
2022/07/12 06:25:48;;;;;;;;;;;1152.00;716.80;;;;;;5092879;28;19931;-59
2022/07/12 06:28:14;;;;;;;;;;;1152.60;716.80;;;;;;5092406;28;20281;-59
2022/07/12 06:30:39;;;;;;;;;;;1178.00;691.20;;;;;;5092630;28;19908;-61
2022/07/12 06:33:05;;;;;;;;;;;1203.40;691.20;;;;;;5092386;28;19953;-61
2022/07/12 06:35:30;;;;;;;;;;;1203.80;665.60;;;;;;5092487;28;19908;-62
2022/07/12 06:37:56;;;;;;;;;;;1203.90;640.00;;;;;;5092142;28;19947;-58
2022/07/12 06:40:22;;;;;;;;;;;1203.20;665.60;;;;;;5092307;28;20247;-61
2022/07/12 06:42:48;;;;;;;;;;;1203.90;640.00;;;;;;5092238;28;19915;-59
2022/07/12 06:45:15;;;;;;;;;;;1203.60;665.60;;;;;;5092226;28;19947;-59
2022/07/12 06:47:41;;;;;;;;;;;1203.80;640.00;;;;;;5092250;28;19920;-62
2022/07/12 06:50:07;;;;;;;;;;;1203.20;665.60;;;;;;5091861;28;19908;-62
2022/07/12 06:52:32;;;;;;;;;;;1203.80;665.60;;;;;;5092178;28;19934;-70
2022/07/12 06:54:58;;;;;;;;;;;1228.80;665.60;;;;;;5091956;28;19915;-59
2022/07/12 06:57:24;;;;;;;;;;;1229.40;640.00;;;;;;5091768;28;19908;-60
2022/07/12 06:59:49;;;;;;;;;;;1229.50;640.00;;;;;;5091975;28;19912;-59
2022/07/12 07:02:15;;;;;;;;;;;1229.40;640.00;;;;;;5090389;28;20382;-64
2022/07/12 07:04:40;;;;;;;;;;;1229.40;640.00;;;;;;5090628;28;19915;-58
2022/07/12 07:07:06;;;;;;;;;;;1254.40;640.00;;;;;;5090280;28;19915;-71
2022/07/12 07:09:32;;;;;;;;;;;1229.40;640.00;;;;;;5090687;28;19934;-68
2022/07/12 07:11:57;;;;;;;;;;;1229.40;640.00;;;;;;5090103;28;20301;-66
2022/07/12 07:14:23;;;;;;;;;;;1229.20;640.00;;;;;;5090290;28;19944;-68
2022/07/12 07:16:48;;;;;;;;;;;1229.50;614.40;;;;;;5090306;28;19912;-72
2022/07/12 07:19:14;;;;;;;;;;;1229.00;640.00;;;;;;5090140;28;19915;-59
2022/07/12 07:21:40;;;;;;;;;;;1229.70;614.40;;;;;;5090059;28;20419;-67
2022/07/12 07:24:05;;;;;;;;;;;1254.60;640.00;;;;;;5090190;28;19986;-68
2022/07/12 07:26:32;;;;;;;;;;;1280.00;614.40;;;;;;5090164;28;19908;-72
2022/07/12 07:31:42;;;;;;;;;;;1255.10;640.00;;;;;;5090321;28;19915;-73
2022/07/12 07:34:08;;;;;;;;;;;1255.30;614.40;;;;;;5089680;28;19912;-60
2022/07/12 07:36:34;;;;;;;;;;;1255.00;614.40;;;;;;5089948;28;19908;-60
2022/07/12 07:38:59;;;;;;;;;;;1255.10;614.40;;;;;;5089863;28;20362;-72
2022/07/12 07:41:25;;;;;;;;;;;1255.00;614.40;;;;;;5089657;28;19924;-72
2022/07/12 07:43:50;;;;;;;;;;;1228.80;640.00;;;;;;5089774;28;20323;-72
2022/07/12 07:46:16;;;;;;;;;;;1229.70;614.40;;;;;;5089751;28;19997;-73
2022/07/12 07:48:42;;;;;;;;;;;1254.40;614.40;;;;;;5089615;28;20411;-61
2022/07/12 07:51:07;;;;;;;;;;;1254.60;614.40;;;;;;5089410;28;20377;-63
2022/07/12 07:53:33;;;;;;;;;;;1280.00;588.80;;;;;;5087528;28;19912;-63
2022/07/12 07:55:59;;;;;;;;;;;1255.00;588.80;;;;;;5088107;28;20302;-61
2022/07/12 07:58:25;;;;;;;;;;;1229.30;614.40;;;;;;5089017;28;19968;-63
2022/07/12 08:00:50;;;;;;;;;;;1228.90;640.00;;;;;;5088269;28;20395;-62
2022/07/12 08:03:17;;;;;;;;;;;1254.60;614.40;;;;;;5088530;28;19916;-62
2022/07/12 08:05:42;;;;;;;;;;;1229.30;614.40;;;;;;5088165;28;20050;-61
2022/07/12 08:08:08;;;;;;;;;;;1229.40;614.40;;;;;;5087986;28;20038;-62
2022/07/12 08:10:33;;;;;;;;;;;1228.80;640.00;;;;;;5088234;28;19928;-63
2022/07/12 08:12:59;;;;;;;;;;;1203.20;640.00;;;;;;5088777;28;20251;-61
2022/07/12 08:15:25;;;;;;;;;;;1178.20;614.40;;;;;;5088507;28;19916;-61
2022/07/12 08:17:51;;;;;;;;;;;1076.10;665.60;;;;;;5088493;28;20388;-59
2022/07/12 08:20:17;;;;;;;;;;;1075.30;691.20;;;;;;5087606;28;19965;-59
2022/07/12 08:22:45;;;;;;;;;;;1050.20;716.80;;;;;;5088389;28;19916;-60
2022/07/12 08:25:12;;;;;;;;;;;999.30;768.00;;;;;;5089280;28;19908;-59
2022/07/12 08:27:37;;;;;;;;;;;973.30;793.60;;;;;;5088561;28;19916;-60
2022/07/12 08:30:03;;;;;;;;;;;921.70;844.80;;;;;;5088952;28;19916;-61
2022/07/12 08:32:29;;;;;;;;;;;896.00;870.40;;;;;;5088591;28;20007;-60
2022/07/12 08:34:55;;;;;;;;;;;896.30;844.80;;;;;;5088581;28;19930;-60
2022/07/12 08:37:21;;;;;;;;;;;871.10;870.40;;;;;;5087895;28;19908;-59
2022/07/12 08:39:46;;;;;;;;;;;845.70;896.00;;;;;;5093016;28;19931;-59
2022/07/12 08:42:14;;;;;;;;;;;845.30;921.60;;;;;;5093014;28;19920;-61
2022/07/12 08:44:40;;;;;;;;;;;820.10;921.60;;;;;;5092799;28;19912;-60
2022/07/12 08:47:07;;;;;;;;;;;819.30;947.20;;;;;;5092849;28;19916;-60
2022/07/12 08:49:32;;;;;;;;;;;819.50;947.20;;;;;;5093217;28;20535;-61
2022/07/12 08:51:58;;;;;;;;;;;794.50;947.20;;;;;;5095105;28;20302;-60
2022/07/12 08:54:24;;;;;;;;;;;819.30;947.20;;;;;;5094205;28;19915;-59
2022/07/12 08:56:50;;;;;;;;;;;794.40;972.80;;;;;;5094498;28;19909;-59
2022/07/12 08:59:16;;;;;;;;;;;794.20;998.40;;;;;;5094222;28;20357;-59
2022/07/12 09:01:45;;;;;;;;;;;794.00;998.40;;;;;;5094127;28;19998;-61
2022/07/12 09:04:15;;;;;;;;;;;794.00;972.80;;;;;;5094151;28;19912;-61
2022/07/12 09:06:41;;;;;;;;;;;794.00;972.80;;;;;;5094175;28;19908;-61
2022/07/12 09:09:08;;;;;;;;;;;794.00;972.80;;;;;;5093792;28;20423;-60
2022/07/12 09:11:38;;;;;;;;;;;794.30;998.40;;;;;;5094021;28;19951;-60
2022/07/12 09:14:03;;;;;;;;;;;794.50;972.80;;;;;;5093859;28;19912;-57
2022/07/12 09:16:29;;;;;;;;;;;794.50;947.20;;;;;;5094014;28;19908;-60
2022/07/12 09:19:21;;;;;;;;;;;794.40;972.80;;;;;;5093733;28;19908;-60
2022/07/12 09:21:50;;;;;;;;;;;819.30;972.80;;;;;;5092549;28;20010;-60
2022/07/12 09:24:16;;;;;;;;;;;819.80;972.80;;;;;;5094000;28;20010;-59
2022/07/12 09:26:43;;;;;;;;;;;794.40;947.20;;;;;;5093836;28;19954;-60
2022/07/12 09:29:09;;;;;;;;;;;794.50;972.80;;;;;;5093712;28;20270;-59
2022/07/12 09:37:15;;;;;;;;;;;768.50;998.40;;;;;;5093857;28;19917;-60
2022/07/12 09:39:41;;;;;;;;;;;768.60;972.80;;;;;;5093565;28;19908;-61
2022/07/12 09:42:09;;;;;;;;;;;793.60;998.40;;;;;;5093660;28;19916;-60
2022/07/12 09:44:35;;;;;;;;;;;768.40;972.80;;;;;;5093269;28;19999;-60
2022/07/12 09:47:01;;;;;;;;;;;768.10;998.40;;;;;;5093532;28;19939;-60
2022/07/12 09:49:27;;;;;;;;;;;768.40;1024.00;;;;;;5091742;28;20312;-61
2022/07/12 09:51:54;;;;;;;;;;;793.70;972.80;;;;;;5093128;28;19912;-59
2022/07/12 09:54:24;;;;;;;;;;;768.50;972.80;;;;;;5093176;28;20007;-60
2022/07/12 09:56:52;;;;;;;;;;;768.10;998.40;;;;;;5093241;28;20003;-59
2022/07/12 09:59:20;;;;;;;;;;;743.30;1024.00;;;;;;5092962;28;20301;-60
2022/07/12 10:01:46;;;;;;;;;;;743.30;1024.00;;;;;;5092951;28;19920;-60
2022/07/12 10:04:13;;;;;;;;;;;768.10;1024.00;;;;;;5093094;28;19930;-60
2022/07/12 10:06:40;;;;;;;;;;;768.40;1024.00;;;;;;5092967;28;20003;-60
2022/07/12 10:09:06;;;;;;;;;;;743.30;998.40;;;;;;5092502;28;19919;-59
2022/07/12 10:11:32;;;;;;;;;;;768.10;998.40;;;;;;5092891;28;19962;-60
2022/07/12 10:13:57;;;;;;;;;;;768.40;998.40;;;;;;5092707;28;19912;-60
2022/07/12 10:16:26;;;;;;;;;;;768.70;947.20;;;;;;5092835;28;19918;-60
2022/07/12 10:19:11;;;;;;;;;;;768.70;972.80;;;;;;5092857;28;19908;-59
2022/07/12 10:21:39;;;;;;;;;;;768.10;972.80;;;;;;5092516;28;19935;-60
2022/07/12 10:24:24;;;;;;;;;;;768.10;998.40;;;;;;5092496;28;20006;-60
2022/07/12 10:26:50;;;;;;;;;;;768.10;998.40;;;;;;5092889;28;19908;-60
2022/07/12 10:29:19;;;;;;;;;;;768.30;998.40;;;;;;5092498;28;20429;-60
2022/07/12 10:31:45;;;;;;;;;;;793.70;998.40;;;;;;5092550;28;19908;-60
2022/07/12 10:34:14;;;;;;;;;;;768.60;947.20;;;;;;5092519;28;19909;-60
2022/07/12 10:36:55;;;;;;;;;;;768.00;972.80;;;;;;5092474;28;19912;-61
2022/07/12 10:39:22;;;;;;;;;;;768.40;1024.00;;;;;;5092653;28;19908;-59
2022/07/12 10:42:05;;;;;;;;;;;768.50;998.40;;;;;;5092225;28;19951;-60
2022/07/12 10:44:33;;;;;;;;;;;743.20;998.40;;;;;;5092499;28;20335;-60
2022/07/12 10:47:00;;;;;;;;;;;743.00;1024.00;;;;;;5092318;28;20372;-60
2022/07/12 10:49:26;;;;;;;;;;;742.50;1049.60;;;;;;5092036;28;19916;-60
2022/07/12 10:52:10;;;;;;;;;;;742.60;1049.60;;;;;;5092361;28;20361;-61
2022/07/12 10:54:56;;;;;;;;;;;742.60;1024.00;;;;;;5092140;28;19915;-60
2022/07/12 10:57:40;;;;;;;;;;;742.80;1049.60;;;;;;5087956;28;19915;-61
2022/07/12 11:00:07;;;;;;;;;;;742.80;1024.00;;;;;;5091165;28;19916;-61
2022/07/12 11:02:33;;;;;;;;;;;742.80;1024.00;;;;;;5091973;28;20078;-60
2022/07/12 11:04:59;;;;;;;;;;;742.90;1024.00;;;;;;5092013;28;20421;-61
2022/07/12 11:07:25;;;;;;;;;;;743.10;1024.00;;;;;;5091654;28;20397;-60
2022/07/12 11:09:53;;;;;;;;;;;743.10;1024.00;;;;;;5091138;28;19908;-60
2022/07/12 11:12:19;;;;;;;;;;;742.90;1024.00;;;;;;5089847;28;19962;-56
2022/07/12 11:14:45;;;;;;;;;;;717.70;1024.00;;;;;;5090270;28;19912;-58
2022/07/12 11:17:10;;;;;;;;;;;742.50;1049.60;;;;;;5090665;28;19915;-60
2022/07/12 11:19:36;;;;;;;;;;;742.50;1049.60;;;;;;5090480;28;19915;-60
2022/07/12 11:22:01;;;;;;;;;;;742.40;1075.20;;;;;;5092057;28;19915;-60
2022/07/12 11:24:28;;;;;;;;;;;742.40;1049.60;;;;;;5091467;28;19908;-61
2022/07/12 11:26:54;;;;;;;;;;;742.50;1049.60;;;;;;5091420;28;19909;-60
2022/07/12 11:29:20;;;;;;;;;;;742.50;1049.60;;;;;;5091547;28;20392;-60
2022/07/12 11:31:46;;;;;;;;;;;742.60;1049.60;;;;;;5091556;28;19908;-61
2022/07/12 11:34:22;;;;;;;;;;;742.90;1049.60;;;;;;5091751;28;20312;-61
2022/07/12 11:36:50;;;;;;;;;;;743.10;1049.60;;;;;;5091275;28;19908;-61
2022/07/12 11:39:16;;;;;;;;;;;743.00;1024.00;;;;;;5091248;28;19949;-61
2022/07/12 11:41:54;;;;;;;;;;;743.00;998.40;;;;;;5091174;28;19956;-60
2022/07/12 11:44:19;;;;;;;;;;;743.00;1024.00;;;;;;5091169;28;19916;-58
2022/07/12 11:46:49;;;;;;;;;;;743.00;1024.00;;;;;;5091164;28;19961;-59
2022/07/12 11:49:15;;;;;;;;;;;742.90;1024.00;;;;;;5091008;28;19961;-60
2022/07/12 11:51:41;;;;;;;;;;;743.30;1049.60;;;;;;5091308;28;20324;-60
2022/07/12 11:54:06;;;;;;;;;;;743.10;1049.60;;;;;;5090881;28;19908;-59
2022/07/12 11:56:32;;;;;;;;;;;743.00;1075.20;;;;;;5091122;28;19908;-60
2022/07/12 11:58:58;;;;;;;;;;;742.90;1075.20;;;;;;5091188;28;19931;-61
2022/07/12 12:01:25;;;;;;;;;;;743.00;1075.20;;;;;;5090773;28;19921;-60
2022/07/12 12:03:51;;;;;;;;;;;743.00;1075.20;;;;;;5091122;28;19908;-59
2022/07/12 12:06:17;;;;;;;;;;;743.30;1075.20;;;;;;5090921;28;19955;-60
2022/07/12 12:08:44;;;;;;;;;;;743.30;1024.00;;;;;;5090990;28;19986;-60
2022/07/12 12:11:10;;;;;;;;;;;743.20;1049.60;;;;;;5090796;28;19916;-60
2022/07/12 12:13:36;;;;;;;;;;;743.10;1049.60;;;;;;5090226;28;20475;-60
2022/07/12 12:16:03;;;;;;;;;;;743.20;1075.20;;;;;;5090861;28;20251;-60
2022/07/12 12:18:29;;;;;;;;;;;768.00;1075.20;;;;;;5089691;28;19920;-58
2022/07/12 12:21:02;;;;;;;;;;;768.30;1100.80;;;;;;5090114;28;19916;-59
2022/07/12 12:23:28;;;;;;;;;;;768.00;1075.20;;;;;;5089895;28;20449;-61
2022/07/12 12:26:08;;;;;;;;;;;743.00;1075.20;;;;;;5086085;28;19920;-60
2022/07/12 12:28:45;;;;;;;;;;;743.10;1075.20;;;;;;5089790;28;19924;-60
2022/07/12 12:31:11;;;;;;;;;;;743.10;1075.20;;;;;;5090308;28;19916;-61
2022/07/12 12:33:37;;;;;;;;;;;743.10;1049.60;;;;;;5090318;28;19934;-60
2022/07/12 12:36:20;;;;;;;;;;;743.20;1075.20;;;;;;5090581;28;19921;-61
2022/07/12 12:38:46;;;;;;;;;;;768.00;1075.20;;;;;;5090477;28;20247;-59
2022/07/12 12:41:12;;;;;;;;;;;743.00;1075.20;;;;;;5090520;28;19920;-60
2022/07/12 12:43:38;;;;;;;;;;;743.10;1075.20;;;;;;5090498;28;20407;-60
2022/07/12 12:46:04;;;;;;;;;;;743.10;1100.80;;;;;;5090423;28;19952;-60
2022/07/12 12:48:31;;;;;;;;;;;743.00;1075.20;;;;;;5090380;28;19955;-61
2022/07/12 12:51:09;;;;;;;;;;;742.90;1075.20;;;;;;5090269;28;19908;-61
2022/07/12 12:53:41;;;;;;;;;;;742.90;1100.80;;;;;;5090026;28;19912;-60
2022/07/12 12:56:13;;;;;;;;;;;743.00;1100.80;;;;;;5090006;28;20404;-61
2022/07/12 12:58:39;;;;;;;;;;;742.90;1100.80;;;;;;5090469;28;19966;-60
2022/07/12 13:01:05;;;;;;;;;;;742.60;1100.80;;;;;;5089578;28;19920;-57
2022/07/12 13:03:31;;;;;;;;;;;742.70;1100.80;;;;;;5089872;28;19937;-59
2022/07/12 13:05:57;;;;;;;;;;;742.70;1075.20;;;;;;5089777;28;19998;-61
2022/07/12 13:08:23;;;;;;;;;;;742.60;1075.20;;;;;;5090151;28;20311;-61
2022/07/12 13:11:18;;;;;;;;;;;742.60;1075.20;;;;;;5088971;28;19985;-60
2022/07/12 13:13:36;;;;;;;;;;;742.80;1075.20;;;;;;5088131;28;20321;-59
2022/07/12 13:16:01;;;;;;;;;;;742.80;1075.20;;;;;;5088832;28;19912;-60
2022/07/12 13:18:27;;;;;;;;;;;742.50;1075.20;;;;;;5088471;28;19915;-61
2022/07/12 13:20:52;;;;;;;;;;;717.70;1100.80;;;;;;5089733;28;19909;-60
2022/07/12 13:23:18;;;;;;;;;;;717.50;1100.80;;;;;;5090573;28;20400;-60
2022/07/12 13:25:43;;;;;;;;;;;717.20;1100.80;;;;;;5093641;28;20273;-60
2022/07/12 13:28:11;;;;;;;;;;;717.30;1100.80;;;;;;5093756;28;19920;-61
2022/07/12 13:30:37;;;;;;;;;;;717.30;1126.40;;;;;;5093454;28;19908;-61
2022/07/12 13:33:02;;;;;;;;;;;717.10;1126.40;;;;;;5093694;28;19908;-60
2022/07/12 13:35:29;;;;;;;;;;;717.00;1152.00;;;;;;5093450;28;20261;-59
2022/07/12 13:37:55;;;;;;;;;;;716.90;1152.00;;;;;;5093299;28;20345;-58
2022/07/12 13:40:22;;;;;;;;;;;692.00;1126.40;;;;;;5093687;28;19966;-60
2022/07/12 13:42:51;;;;;;;;;;;691.90;1126.40;;;;;;5093540;28;19935;-60
2022/07/12 13:45:21;;;;;;;;;;;716.80;1177.60;;;;;;5093471;28;19912;-61
2022/07/12 13:47:47;;;;;;;;;;;716.90;1152.00;;;;;;5093144;28;19912;-61
2022/07/12 13:50:13;;;;;;;;;;;716.80;1152.00;;;;;;5093532;28;19908;-61
2022/07/12 13:52:40;;;;;;;;;;;716.80;1152.00;;;;;;5093176;28;20330;-62